sensor_id;sensor_type;location;lat;lon;timestamp;temperature;humidity
82506;SHT30;72144;51.444;10.560;2023-08-12T00:02:32;24.19;49.93
82506;SHT30;72144;51.444;10.560;2023-08-12T00:04:57;24.16;49.94
82506;SHT30;72144;51.444;10.560;2023-08-12T00:07:23;24.12;50.04
82506;SHT30;72144;51.444;10.560;2023-08-12T00:09:48;24.09;50.25
82506;SHT30;72144;51.444;10.560;2023-08-12T00:12:14;24.08;50.16
82506;SHT30;72144;51.444;10.560;2023-08-12T00:14:40;24.02;49.97
82506;SHT30;72144;51.444;10.560;2023-08-12T00:17:05;23.98;49.89
82506;SHT30;72144;51.444;10.560;2023-08-12T00:19:31;23.94;49.96
82506;SHT30;72144;51.444;10.560;2023-08-12T00:21:57;23.89;50.16
82506;SHT30;72144;51.444;10.560;2023-08-12T00:24:22;23.85;49.99
82506;SHT30;72144;51.444;10.560;2023-08-12T00:26:47;23.79;50.10
82506;SHT30;72144;51.444;10.560;2023-08-12T00:29:13;23.74;50.04
82506;SHT30;72144;51.444;10.560;2023-08-12T00:31:38;23.70;50.14
82506;SHT30;72144;51.444;10.560;2023-08-12T00:34:03;23.67;50.05
82506;SHT30;72144;51.444;10.560;2023-08-12T00:36:29;23.63;50.26
82506;SHT30;72144;51.444;10.560;2023-08-12T00:38:54;23.59;50.15
82506;SHT30;72144;51.444;10.560;2023-08-12T00:41:19;23.57;50.34
82506;SHT30;72144;51.444;10.560;2023-08-12T00:43:45;23.50;50.21
82506;SHT30;72144;51.444;10.560;2023-08-12T00:46:10;23.47;50.14
82506;SHT30;72144;51.444;10.560;2023-08-12T00:48:36;23.43;50.21
82506;SHT30;72144;51.444;10.560;2023-08-12T00:51:02;23.43;50.15
82506;SHT30;72144;51.444;10.560;2023-08-12T00:53:28;23.38;50.42
82506;SHT30;72144;51.444;10.560;2023-08-12T00:55:53;23.33;50.60
82506;SHT30;72144;51.444;10.560;2023-08-12T00:58:20;23.32;50.36
82506;SHT30;72144;51.444;10.560;2023-08-12T01:00:45;23.25;50.61
82506;SHT30;72144;51.444;10.560;2023-08-12T01:03:11;23.20;50.81
82506;SHT30;72144;51.444;10.560;2023-08-12T01:05:37;23.19;50.73
82506;SHT30;72144;51.444;10.560;2023-08-12T01:08:02;23.12;50.75
82506;SHT30;72144;51.444;10.560;2023-08-12T01:10:37;23.08;51.02
82506;SHT30;72144;51.444;10.560;2023-08-12T01:13:16;23.05;50.75
82506;SHT30;72144;51.444;10.560;2023-08-12T01:15:45;23.02;50.96
82506;SHT30;72144;51.444;10.560;2023-08-12T01:18:12;22.97;51.05
82506;SHT30;72144;51.444;10.560;2023-08-12T01:20:39;22.94;51.04
82506;SHT30;72144;51.444;10.560;2023-08-12T01:23:10;22.87;51.00
82506;SHT30;72144;51.444;10.560;2023-08-12T01:25:36;22.83;51.22
82506;SHT30;72144;51.444;10.560;2023-08-12T01:28:02;22.78;51.29
82506;SHT30;72144;51.444;10.560;2023-08-12T01:30:27;22.75;51.02
82506;SHT30;72144;51.444;10.560;2023-08-12T01:32:56;22.71;51.02
82506;SHT30;72144;51.444;10.560;2023-08-12T01:35:35;22.64;51.19
82506;SHT30;72144;51.444;10.560;2023-08-12T01:38:05;22.63;51.15
82506;SHT30;72144;51.444;10.560;2023-08-12T01:40:33;22.57;51.34
82506;SHT30;72144;51.444;10.560;2023-08-12T01:42:59;22.53;51.40
82506;SHT30;72144;51.444;10.560;2023-08-12T01:45:25;22.50;51.32
82506;SHT30;72144;51.444;10.560;2023-08-12T01:47:50;22.45;51.43
82506;SHT30;72144;51.444;10.560;2023-08-12T01:50:16;22.42;51.48
82506;SHT30;72144;51.444;10.560;2023-08-12T01:52:42;22.37;51.51
82506;SHT30;72144;51.444;10.560;2023-08-12T01:55:08;22.35;51.50
82506;SHT30;72144;51.444;10.560;2023-08-12T01:57:34;22.30;51.42
82506;SHT30;72144;51.444;10.560;2023-08-12T02:00:01;22.28;51.46
82506;SHT30;72144;51.444;10.560;2023-08-12T02:02:27;22.23;51.74
82506;SHT30;72144;51.444;10.560;2023-08-12T02:04:52;22.22;52.08
82506;SHT30;72144;51.444;10.560;2023-08-12T02:07:17;22.18;52.06
82506;SHT30;72144;51.444;10.560;2023-08-12T02:09:43;22.13;52.46
82506;SHT30;72144;51.444;10.560;2023-08-12T02:12:08;22.11;52.15
82506;SHT30;72144;51.444;10.560;2023-08-12T02:14:33;22.05;52.16
82506;SHT30;72144;51.444;10.560;2023-08-12T02:16:59;22.02;52.16
82506;SHT30;72144;51.444;10.560;2023-08-12T02:19:25;22.02;52.61
82506;SHT30;72144;51.444;10.560;2023-08-12T02:21:50;21.98;52.16
82506;SHT30;72144;51.444;10.560;2023-08-12T02:24:15;21.94;52.49
82506;SHT30;72144;51.444;10.560;2023-08-12T02:26:41;21.91;52.29
82506;SHT30;72144;51.444;10.560;2023-08-12T02:29:06;21.88;52.59
82506;SHT30;72144;51.444;10.560;2023-08-12T02:31:31;21.85;52.43
82506;SHT30;72144;51.444;10.560;2023-08-12T02:33:57;21.83;52.35
82506;SHT30;72144;51.444;10.560;2023-08-12T02:36:22;21.80;52.51
82506;SHT30;72144;51.444;10.560;2023-08-12T02:38:47;21.75;52.49
82506;SHT30;72144;51.444;10.560;2023-08-12T02:41:13;21.71;52.43
82506;SHT30;72144;51.444;10.560;2023-08-12T02:43:38;21.70;52.42
82506;SHT30;72144;51.444;10.560;2023-08-12T02:46:04;21.70;52.57
82506;SHT30;72144;51.444;10.560;2023-08-12T02:48:29;21.63;52.49
82506;SHT30;72144;51.444;10.560;2023-08-12T02:50:54;21.66;52.48
82506;SHT30;72144;51.444;10.560;2023-08-12T02:53:20;21.57;52.49
82506;SHT30;72144;51.444;10.560;2023-08-12T02:55:45;21.58;52.68
82506;SHT30;72144;51.444;10.560;2023-08-12T02:58:11;21.53;52.60
82506;SHT30;72144;51.444;10.560;2023-08-12T03:00:36;21.53;52.96
82506;SHT30;72144;51.444;10.560;2023-08-12T03:03:01;21.51;52.99
82506;SHT30;72144;51.444;10.560;2023-08-12T03:05:27;21.47;52.98
82506;SHT30;72144;51.444;10.560;2023-08-12T03:07:52;21.43;53.01
82506;SHT30;72144;51.444;10.560;2023-08-12T03:10:18;21.42;53.03
82506;SHT30;72144;51.444;10.560;2023-08-12T03:12:43;21.40;53.09
82506;SHT30;72144;51.444;10.560;2023-08-12T03:15:09;21.38;53.12
82506;SHT30;72144;51.444;10.560;2023-08-12T03:17:35;21.36;53.26
82506;SHT30;72144;51.444;10.560;2023-08-12T03:20:00;21.32;53.24
82506;SHT30;72144;51.444;10.560;2023-08-12T03:22:29;21.29;53.22
82506;SHT30;72144;51.444;10.560;2023-08-12T03:24:54;21.26;53.35
82506;SHT30;72144;51.444;10.560;2023-08-12T03:27:20;21.25;53.18
82506;SHT30;72144;51.444;10.560;2023-08-12T03:29:45;21.22;53.36
82506;SHT30;72144;51.444;10.560;2023-08-12T03:32:13;21.19;53.59
82506;SHT30;72144;51.444;10.560;2023-08-12T03:34:38;21.19;53.80
82506;SHT30;72144;51.444;10.560;2023-08-12T03:37:04;21.15;53.62
82506;SHT30;72144;51.444;10.560;2023-08-12T03:39:29;21.13;53.69
82506;SHT30;72144;51.444;10.560;2023-08-12T03:41:54;21.11;54.04
82506;SHT30;72144;51.444;10.560;2023-08-12T03:44:20;21.08;53.87
82506;SHT30;72144;51.444;10.560;2023-08-12T03:46:45;21.06;54.21
82506;SHT30;72144;51.444;10.560;2023-08-12T03:49:10;21.05;54.00
82506;SHT30;72144;51.444;10.560;2023-08-12T03:51:36;21.02;53.97
82506;SHT30;72144;51.444;10.560;2023-08-12T03:54:01;20.99;54.33
82506;SHT30;72144;51.444;10.560;2023-08-12T03:56:27;20.99;54.41
82506;SHT30;72144;51.444;10.560;2023-08-12T03:58:52;20.95;54.20
82506;SHT30;72144;51.444;10.560;2023-08-12T04:01:18;20.94;54.28
82506;SHT30;72144;51.444;10.560;2023-08-12T04:03:43;20.92;54.47
82506;SHT30;72144;51.444;10.560;2023-08-12T04:06:08;20.91;54.18
82506;SHT30;72144;51.444;10.560;2023-08-12T04:08:34;20.90;54.42
82506;SHT30;72144;51.444;10.560;2023-08-12T04:10:59;20.87;54.47
82506;SHT30;72144;51.444;10.560;2023-08-12T04:13:25;20.87;54.37
82506;SHT30;72144;51.444;10.560;2023-08-12T04:15:50;20.87;54.61
82506;SHT30;72144;51.444;10.560;2023-08-12T04:18:16;20.83;54.71
82506;SHT30;72144;51.444;10.560;2023-08-12T04:20:41;20.84;54.56
82506;SHT30;72144;51.444;10.560;2023-08-12T04:23:07;20.81;54.49
82506;SHT30;72144;51.444;10.560;2023-08-12T04:25:32;20.80;54.71
82506;SHT30;72144;51.444;10.560;2023-08-12T04:27:58;20.80;54.59
82506;SHT30;72144;51.444;10.560;2023-08-12T04:30:23;20.76;54.63
82506;SHT30;72144;51.444;10.560;2023-08-12T04:32:49;20.77;54.65
82506;SHT30;72144;51.444;10.560;2023-08-12T04:35:14;20.74;54.79
82506;SHT30;72144;51.444;10.560;2023-08-12T04:37:39;20.71;55.09
82506;SHT30;72144;51.444;10.560;2023-08-12T04:40:05;20.71;55.16
82506;SHT30;72144;51.444;10.560;2023-08-12T04:42:32;20.71;55.19
82506;SHT30;72144;51.444;10.560;2023-08-12T04:44:58;20.68;55.46
82506;SHT30;72144;51.444;10.560;2023-08-12T04:47:23;20.70;55.77
82506;SHT30;72144;51.444;10.560;2023-08-12T04:49:48;20.68;55.55
82506;SHT30;72144;51.444;10.560;2023-08-12T04:52:14;20.68;55.51
82506;SHT30;72144;51.444;10.560;2023-08-12T04:54:39;20.67;55.62
82506;SHT30;72144;51.444;10.560;2023-08-12T04:57:05;20.66;55.93
82506;SHT30;72144;51.444;10.560;2023-08-12T04:59:31;20.66;56.25
82506;SHT30;72144;51.444;10.560;2023-08-12T05:01:56;20.66;56.21
82506;SHT30;72144;51.444;10.560;2023-08-12T05:04:21;20.64;56.10
82506;SHT30;72144;51.444;10.560;2023-08-12T05:06:47;20.63;56.22
82506;SHT30;72144;51.444;10.560;2023-08-12T05:09:14;20.61;56.38
82506;SHT30;72144;51.444;10.560;2023-08-12T05:11:39;20.60;56.32
82506;SHT30;72144;51.444;10.560;2023-08-12T05:14:05;20.59;56.48
82506;SHT30;72144;51.444;10.560;2023-08-12T05:16:30;20.61;56.65
82506;SHT30;72144;51.444;10.560;2023-08-12T05:18:55;20.61;56.60
82506;SHT30;72144;51.444;10.560;2023-08-12T05:21:21;20.56;56.71
82506;SHT30;72144;51.444;10.560;2023-08-12T05:23:46;20.56;56.80
82506;SHT30;72144;51.444;10.560;2023-08-12T05:26:13;20.59;56.94
82506;SHT30;72144;51.444;10.560;2023-08-12T05:28:38;20.56;56.98
82506;SHT30;72144;51.444;10.560;2023-08-12T05:31:03;20.57;57.09
82506;SHT30;72144;51.444;10.560;2023-08-12T05:33:29;20.57;57.29
82506;SHT30;72144;51.444;10.560;2023-08-12T05:35:54;20.57;57.40
82506;SHT30;72144;51.444;10.560;2023-08-12T05:38:19;20.59;57.43
82506;SHT30;72144;51.444;10.560;2023-08-12T05:40:45;20.57;57.39
82506;SHT30;72144;51.444;10.560;2023-08-12T05:43:10;20.57;57.39
82506;SHT30;72144;51.444;10.560;2023-08-12T05:45:35;20.57;57.41
82506;SHT30;72144;51.444;10.560;2023-08-12T05:48:01;20.56;57.36
82506;SHT30;72144;51.444;10.560;2023-08-12T05:50:26;20.54;57.53
82506;SHT30;72144;51.444;10.560;2023-08-12T05:52:51;20.54;58.03
82506;SHT30;72144;51.444;10.560;2023-08-12T05:55:17;20.56;57.83
82506;SHT30;72144;51.444;10.560;2023-08-12T05:57:42;20.53;57.97
82506;SHT30;72144;51.444;10.560;2023-08-12T06:00:08;20.54;57.89
82506;SHT30;72144;51.444;10.560;2023-08-12T06:02:33;20.56;57.89
82506;SHT30;72144;51.444;10.560;2023-08-12T06:04:59;20.57;58.00
82506;SHT30;72144;51.444;10.560;2023-08-12T06:07:24;20.54;58.00
82506;SHT30;72144;51.444;10.560;2023-08-12T06:09:50;20.56;58.22
82506;SHT30;72144;51.444;10.560;2023-08-12T06:12:16;20.56;58.28
82506;SHT30;72144;51.444;10.560;2023-08-12T06:14:41;20.56;58.25
82506;SHT30;72144;51.444;10.560;2023-08-12T06:17:07;20.56;58.59
82506;SHT30;72144;51.444;10.560;2023-08-12T06:19:32;20.56;58.72
82506;SHT30;72144;51.444;10.560;2023-08-12T06:21:58;20.59;58.82
82506;SHT30;72144;51.444;10.560;2023-08-12T06:24:23;20.57;58.68
82506;SHT30;72144;51.444;10.560;2023-08-12T06:26:48;20.57;59.03
82506;SHT30;72144;51.444;10.560;2023-08-12T06:29:14;20.59;59.18
82506;SHT30;72144;51.444;10.560;2023-08-12T06:31:39;20.61;59.21
82506;SHT30;72144;51.444;10.560;2023-08-12T06:34:05;20.63;59.35
82506;SHT30;72144;51.444;10.560;2023-08-12T06:36:30;20.63;59.33
82506;SHT30;72144;51.444;10.560;2023-08-12T06:38:55;20.67;59.81
82506;SHT30;72144;51.444;10.560;2023-08-12T06:41:21;20.67;59.59
82506;SHT30;72144;51.444;10.560;2023-08-12T06:43:46;20.68;59.56
82506;SHT30;72144;51.444;10.560;2023-08-12T06:46:12;20.71;59.83
82506;SHT30;72144;51.444;10.560;2023-08-12T06:48:37;20.71;59.71
82506;SHT30;72144;51.444;10.560;2023-08-12T06:51:02;20.74;59.90
82506;SHT30;72144;51.444;10.560;2023-08-12T06:53:36;20.74;60.01
82506;SHT30;72144;51.444;10.560;2023-08-12T06:56:01;20.76;60.30
82506;SHT30;72144;51.444;10.560;2023-08-12T06:58:27;20.78;60.02
82506;SHT30;72144;51.444;10.560;2023-08-12T07:00:52;20.77;60.41
82506;SHT30;72144;51.444;10.560;2023-08-12T07:03:18;20.81;60.73
82506;SHT30;72144;51.444;10.560;2023-08-12T07:05:44;20.80;60.73
82506;SHT30;72144;51.444;10.560;2023-08-12T07:08:09;20.80;60.70
82506;SHT30;72144;51.444;10.560;2023-08-12T07:10:38;20.80;60.74
82506;SHT30;72144;51.444;10.560;2023-08-12T07:13:03;20.83;60.72
82506;SHT30;72144;51.444;10.560;2023-08-12T07:15:29;20.83;60.62
82506;SHT30;72144;51.444;10.560;2023-08-12T07:17:54;20.84;60.94
82506;SHT30;72144;51.444;10.560;2023-08-12T07:20:19;20.87;60.90
82506;SHT30;72144;51.444;10.560;2023-08-12T07:22:45;20.84;61.05
82506;SHT30;72144;51.444;10.560;2023-08-12T07:25:10;20.85;61.08
82506;SHT30;72144;51.444;10.560;2023-08-12T07:27:36;20.87;61.14
82506;SHT30;72144;51.444;10.560;2023-08-12T07:30:01;20.88;61.16
82506;SHT30;72144;51.444;10.560;2023-08-12T07:32:27;20.87;61.19
82506;SHT30;72144;51.444;10.560;2023-08-12T07:34:52;20.91;61.03
82506;SHT30;72144;51.444;10.560;2023-08-12T07:37:17;20.87;61.21
82506;SHT30;72144;51.444;10.560;2023-08-12T07:39:43;20.87;61.27
82506;SHT30;72144;51.444;10.560;2023-08-12T07:42:08;20.87;61.52
82506;SHT30;72144;51.444;10.560;2023-08-12T07:44:33;20.88;61.79
82506;SHT30;72144;51.444;10.560;2023-08-12T07:46:59;20.88;61.90
82506;SHT30;72144;51.444;10.560;2023-08-12T07:49:24;20.87;61.83
82506;SHT30;72144;51.444;10.560;2023-08-12T07:51:49;20.87;61.79
82506;SHT30;72144;51.444;10.560;2023-08-12T07:54:15;20.85;61.71
82506;SHT30;72144;51.444;10.560;2023-08-12T07:56:40;20.85;61.70
82506;SHT30;72144;51.444;10.560;2023-08-12T07:59:06;20.88;61.78
82506;SHT30;72144;51.444;10.560;2023-08-12T08:01:31;20.85;61.82
82506;SHT30;72144;51.444;10.560;2023-08-12T08:03:57;20.84;61.76
82506;SHT30;72144;51.444;10.560;2023-08-12T08:06:23;20.87;61.89
82506;SHT30;72144;51.444;10.560;2023-08-12T08:08:52;20.85;61.89
82506;SHT30;72144;51.444;10.560;2023-08-12T08:11:17;20.84;62.03
82506;SHT30;72144;51.444;10.560;2023-08-12T08:13:43;20.87;61.96
82506;SHT30;72144;51.444;10.560;2023-08-12T08:16:08;20.87;62.06
82506;SHT30;72144;51.444;10.560;2023-08-12T08:18:33;20.85;62.18
82506;SHT30;72144;51.444;10.560;2023-08-12T08:20:59;20.87;62.31
82506;SHT30;72144;51.444;10.560;2023-08-12T08:23:24;20.85;62.17
82506;SHT30;72144;51.444;10.560;2023-08-12T08:25:50;20.88;62.27
82506;SHT30;72144;51.444;10.560;2023-08-12T08:28:15;20.88;62.38
82506;SHT30;72144;51.444;10.560;2023-08-12T08:30:40;20.91;62.42
82506;SHT30;72144;51.444;10.560;2023-08-12T08:33:06;20.92;62.57
82506;SHT30;72144;51.444;10.560;2023-08-12T08:35:31;20.94;62.49
82506;SHT30;72144;51.444;10.560;2023-08-12T08:37:57;20.96;62.45
82506;SHT30;72144;51.444;10.560;2023-08-12T08:40:23;20.99;62.35
82506;SHT30;72144;51.444;10.560;2023-08-12T08:42:51;21.06;62.25
82506;SHT30;72144;51.444;10.560;2023-08-12T08:45:18;21.06;61.69
82506;SHT30;72144;51.444;10.560;2023-08-12T08:47:44;21.11;61.56
82506;SHT30;72144;51.444;10.560;2023-08-12T08:50:11;21.12;61.24
82506;SHT30;72144;51.444;10.560;2023-08-12T08:52:39;21.16;60.99
82506;SHT30;72144;51.444;10.560;2023-08-12T08:55:05;21.22;60.74
82506;SHT30;72144;51.444;10.560;2023-08-12T08:57:31;21.25;60.56
82506;SHT30;72144;51.444;10.560;2023-08-12T08:59:57;21.29;60.47
82506;SHT30;72144;51.444;10.560;2023-08-12T09:02:23;21.35;60.37
82506;SHT30;72144;51.444;10.560;2023-08-12T09:04:49;21.38;60.40
82506;SHT30;72144;51.444;10.560;2023-08-12T09:07:15;21.46;60.14
82506;SHT30;72144;51.444;10.560;2023-08-12T09:09:45;21.53;60.36
82506;SHT30;72144;51.444;10.560;2023-08-12T09:12:13;21.56;60.07
82506;SHT30;72144;51.444;10.560;2023-08-12T09:14:39;21.63;60.05
82506;SHT30;72144;51.444;10.560;2023-08-12T09:17:05;21.67;59.77
82506;SHT30;72144;51.444;10.560;2023-08-12T09:19:31;21.75;59.99
82506;SHT30;72144;51.444;10.560;2023-08-12T09:21:56;21.83;59.75
82506;SHT30;72144;51.444;10.560;2023-08-12T09:24:25;21.88;60.31
82506;SHT30;72144;51.444;10.560;2023-08-12T09:26:52;21.95;60.01
82506;SHT30;72144;51.444;10.560;2023-08-12T09:29:17;22.01;60.05
82506;SHT30;72144;51.444;10.560;2023-08-12T09:31:43;22.12;60.15
82506;SHT30;72144;51.444;10.560;2023-08-12T09:34:08;22.20;60.36
82506;SHT30;72144;51.444;10.560;2023-08-12T09:36:34;22.30;60.61
82506;SHT30;72144;51.444;10.560;2023-08-12T09:38:59;22.42;60.74
82506;SHT30;72144;51.444;10.560;2023-08-12T09:41:26;22.56;61.48
82506;SHT30;72144;51.444;10.560;2023-08-12T09:43:52;22.68;61.36
82506;SHT30;72144;51.444;10.560;2023-08-12T09:46:22;22.84;61.74
82506;SHT30;72144;51.444;10.560;2023-08-12T09:48:51;22.98;61.85
82506;SHT30;72144;51.444;10.560;2023-08-12T09:51:17;23.12;62.17
82506;SHT30;72144;51.444;10.560;2023-08-12T09:53:43;23.30;62.07
82506;SHT30;72144;51.444;10.560;2023-08-12T09:56:11;23.45;62.70
82506;SHT30;72144;51.444;10.560;2023-08-12T09:58:37;23.61;62.62
82506;SHT30;72144;51.444;10.560;2023-08-12T10:01:05;23.75;62.87
82506;SHT30;72144;51.444;10.560;2023-08-12T10:03:33;23.94;62.55
82506;SHT30;72144;51.444;10.560;2023-08-12T10:06:00;24.12;62.70
82506;SHT30;72144;51.444;10.560;2023-08-12T10:08:28;24.30;62.84
82506;SHT30;72144;51.444;10.560;2023-08-12T10:10:54;24.47;63.29
82506;SHT30;72144;51.444;10.560;2023-08-12T10:13:21;24.63;63.31
82506;SHT30;72144;51.444;10.560;2023-08-12T10:15:46;24.81;63.19
82506;SHT30;72144;51.444;10.560;2023-08-12T10:18:13;24.99;62.93
82506;SHT30;72144;51.444;10.560;2023-08-12T10:20:39;25.23;62.65
82506;SHT30;72144;51.444;10.560;2023-08-12T10:23:05;25.40;62.66
82506;SHT30;72144;51.444;10.560;2023-08-12T10:25:32;25.57;62.67
82506;SHT30;72144;51.444;10.560;2023-08-12T10:28:01;25.77;61.43
82506;SHT30;72144;51.444;10.560;2023-08-12T10:30:30;25.91;61.71
82506;SHT30;72144;51.444;10.560;2023-08-12T10:32:58;26.08;60.69
82506;SHT30;72144;51.444;10.560;2023-08-12T10:35:23;26.26;60.91
82506;SHT30;72144;51.444;10.560;2023-08-12T10:38:05;26.40;60.19
82506;SHT30;72144;51.444;10.560;2023-08-12T10:40:31;26.53;60.69
82506;SHT30;72144;51.444;10.560;2023-08-12T10:42:56;26.70;59.51
82506;SHT30;72144;51.444;10.560;2023-08-12T10:45:22;26.85;59.97
82506;SHT30;72144;51.444;10.560;2023-08-12T10:47:52;27.04;59.40
82506;SHT30;72144;51.444;10.560;2023-08-12T10:50:20;27.16;59.40
82506;SHT30;72144;51.444;10.560;2023-08-12T10:52:47;27.30;59.13
82506;SHT30;72144;51.444;10.560;2023-08-12T10:55:25;27.50;58.50
82506;SHT30;72144;51.444;10.560;2023-08-12T10:57:52;27.64;58.08
82506;SHT30;72144;51.444;10.560;2023-08-12T11:00:26;27.78;58.00
82506;SHT30;72144;51.444;10.560;2023-08-12T11:02:53;27.91;57.12
82506;SHT30;72144;51.444;10.560;2023-08-12T11:05:19;27.99;57.91
82506;SHT30;72144;51.444;10.560;2023-08-12T11:07:59;28.09;57.26
82506;SHT30;72144;51.444;10.560;2023-08-12T11:10:27;28.19;56.66
82506;SHT30;72144;51.444;10.560;2023-08-12T11:15:38;28.29;56.50
82506;SHT30;72144;51.444;10.560;2023-08-12T11:18:15;28.32;56.36
82506;SHT30;72144;51.444;10.560;2023-08-12T11:20:44;28.35;56.17
82506;SHT30;72144;51.444;10.560;2023-08-12T11:23:10;28.37;56.23
82506;SHT30;72144;51.444;10.560;2023-08-12T11:25:37;28.40;55.97
82506;SHT30;72144;51.444;10.560;2023-08-12T11:28:07;28.42;56.47
82506;SHT30;72144;51.444;10.560;2023-08-12T11:30:33;28.44;56.16
82506;SHT30;72144;51.444;10.560;2023-08-12T11:33:00;28.44;56.21
82506;SHT30;72144;51.444;10.560;2023-08-12T11:35:26;28.46;56.14
82506;SHT30;72144;51.444;10.560;2023-08-12T11:37:54;28.47;56.36
82506;SHT30;72144;51.444;10.560;2023-08-12T11:40:21;28.54;55.62
82506;SHT30;72144;51.444;10.560;2023-08-12T11:42:48;28.56;55.03
82506;SHT30;72144;51.444;10.560;2023-08-12T11:45:16;28.57;55.44
82506;SHT30;72144;51.444;10.560;2023-08-12T11:47:42;28.65;54.83
82506;SHT30;72144;51.444;10.560;2023-08-12T11:50:09;28.70;55.23
82506;SHT30;72144;51.444;10.560;2023-08-12T11:52:39;28.74;54.88
82506;SHT30;72144;51.444;10.560;2023-08-12T11:55:08;28.84;54.67
82506;SHT30;72144;51.444;10.560;2023-08-12T11:57:33;28.91;54.09
82506;SHT30;72144;51.444;10.560;2023-08-12T12:00:06;28.98;54.62
82506;SHT30;72144;51.444;10.560;2023-08-12T12:02:39;29.04;53.86
82506;SHT30;72144;51.444;10.560;2023-08-12T12:05:12;29.08;54.27
82506;SHT30;72144;51.444;10.560;2023-08-12T12:07:37;29.15;54.24
82506;SHT30;72144;51.444;10.560;2023-08-12T12:10:06;29.19;54.28
82506;SHT30;72144;51.444;10.560;2023-08-12T12:12:35;29.26;54.00
82506;SHT30;72144;51.444;10.560;2023-08-12T12:15:01;29.32;53.64
82506;SHT30;72144;51.444;10.560;2023-08-12T12:17:27;29.40;53.48
82506;SHT30;72144;51.444;10.560;2023-08-12T12:19:55;29.47;53.93
82506;SHT30;72144;51.444;10.560;2023-08-12T12:22:28;29.53;53.49
82506;SHT30;72144;51.444;10.560;2023-08-12T12:24:56;29.60;54.10
82506;SHT30;72144;51.444;10.560;2023-08-12T12:27:22;29.64;53.45
82506;SHT30;72144;51.444;10.560;2023-08-12T12:29:47;29.71;53.93
82506;SHT30;72144;51.444;10.560;2023-08-12T12:32:13;29.75;53.60
82506;SHT30;72144;51.444;10.560;2023-08-12T12:34:38;29.78;53.07
82506;SHT30;72144;51.444;10.560;2023-08-12T12:37:03;29.85;53.04
82506;SHT30;72144;51.444;10.560;2023-08-12T12:39:29;29.91;52.63
82506;SHT30;72144;51.444;10.560;2023-08-12T12:41:54;29.94;53.43
82506;SHT30;72144;51.444;10.560;2023-08-12T12:44:19;30.01;52.56
82506;SHT30;72144;51.444;10.560;2023-08-12T12:46:45;30.02;53.17
82506;SHT30;72144;51.444;10.560;2023-08-12T12:49:10;30.08;52.15
82506;SHT30;72144;51.444;10.560;2023-08-12T12:51:35;30.15;51.83
82506;SHT30;72144;51.444;10.560;2023-08-12T12:54:01;30.16;52.05
82506;SHT30;72144;51.444;10.560;2023-08-12T12:56:26;30.22;52.78
82506;SHT30;72144;51.444;10.560;2023-08-12T12:58:52;30.25;53.00
82506;SHT30;72144;51.444;10.560;2023-08-12T13:01:17;30.29;52.85
82506;SHT30;72144;51.444;10.560;2023-08-12T13:03:42;30.30;51.96
82506;SHT30;72144;51.444;10.560;2023-08-12T13:06:08;30.36;51.86
82506;SHT30;72144;51.444;10.560;2023-08-12T13:08:33;30.39;51.84
82506;SHT30;72144;51.444;10.560;2023-08-12T13:10:59;30.41;51.13
82506;SHT30;72144;51.444;10.560;2023-08-12T13:13:24;30.41;51.22
82506;SHT30;72144;51.444;10.560;2023-08-12T13:15:50;30.43;51.40
82506;SHT30;72144;51.444;10.560;2023-08-12T13:18:16;30.41;51.31
82506;SHT30;72144;51.444;10.560;2023-08-12T13:20:41;30.41;50.91
82506;SHT30;72144;51.444;10.560;2023-08-12T13:23:07;30.39;51.22
82506;SHT30;72144;51.444;10.560;2023-08-12T13:25:33;30.36;51.07
82506;SHT30;72144;51.444;10.560;2023-08-12T13:28:02;30.37;51.64
82506;SHT30;72144;51.444;10.560;2023-08-12T13:30:28;30.30;51.83
82506;SHT30;72144;51.444;10.560;2023-08-12T13:32:54;30.30;52.27
82506;SHT30;72144;51.444;10.560;2023-08-12T13:35:21;30.25;51.97
82506;SHT30;72144;51.444;10.560;2023-08-12T13:37:46;30.19;51.81
82506;SHT30;72144;51.444;10.560;2023-08-12T13:40:12;30.11;52.07
82506;SHT30;72144;51.444;10.560;2023-08-12T13:42:38;30.08;52.83
82506;SHT30;72144;51.444;10.560;2023-08-12T13:45:04;30.00;53.15
82506;SHT30;72144;51.444;10.560;2023-08-12T13:47:30;29.91;53.04
82506;SHT30;72144;51.444;10.560;2023-08-12T13:49:55;29.85;53.22
82506;SHT30;72144;51.444;10.560;2023-08-12T13:52:21;29.75;54.23
82506;SHT30;72144;51.444;10.560;2023-08-12T13:54:47;29.63;53.96
82506;SHT30;72144;51.444;10.560;2023-08-12T13:57:12;29.54;54.38
82506;SHT30;72144;51.444;10.560;2023-08-12T13:59:37;29.47;54.58
82506;SHT30;72144;51.444;10.560;2023-08-12T14:02:03;29.39;54.97
82506;SHT30;72144;51.444;10.560;2023-08-12T14:04:28;29.26;55.05
82506;SHT30;72144;51.444;10.560;2023-08-12T14:06:53;29.22;55.59
82506;SHT30;72144;51.444;10.560;2023-08-12T14:09:19;29.14;56.10
82506;SHT30;72144;51.444;10.560;2023-08-12T14:11:45;29.06;56.48
82506;SHT30;72144;51.444;10.560;2023-08-12T14:14:10;29.04;56.45
82506;SHT30;72144;51.444;10.560;2023-08-12T14:16:36;28.97;56.42
82506;SHT30;72144;51.444;10.560;2023-08-12T14:19:02;28.92;56.60
82506;SHT30;72144;51.444;10.560;2023-08-12T14:21:27;28.88;56.81
82506;SHT30;72144;51.444;10.560;2023-08-12T14:23:53;28.86;56.91
82506;SHT30;72144;51.444;10.560;2023-08-12T14:26:18;28.80;57.09
82506;SHT30;72144;51.444;10.560;2023-08-12T14:28:44;28.78;57.19
82506;SHT30;72144;51.444;10.560;2023-08-12T14:31:11;28.78;57.62
82506;SHT30;72144;51.444;10.560;2023-08-12T14:33:36;28.75;57.53
82506;SHT30;72144;51.444;10.560;2023-08-12T14:36:03;28.74;57.86
82506;SHT30;72144;51.444;10.560;2023-08-12T14:38:28;28.75;57.38
82506;SHT30;72144;51.444;10.560;2023-08-12T14:40:54;28.75;57.70
82506;SHT30;72144;51.444;10.560;2023-08-12T14:43:19;28.75;57.43
82506;SHT30;72144;51.444;10.560;2023-08-12T14:45:45;28.75;57.22
82506;SHT30;72144;51.444;10.560;2023-08-12T14:48:13;28.72;57.12
82506;SHT30;72144;51.444;10.560;2023-08-12T14:50:43;28.74;57.47
82506;SHT30;72144;51.444;10.560;2023-08-12T14:53:09;28.72;56.82
82506;SHT30;72144;51.444;10.560;2023-08-12T14:55:34;28.72;56.89
82506;SHT30;72144;51.444;10.560;2023-08-12T14:57:59;28.74;56.87
82506;SHT30;72144;51.444;10.560;2023-08-12T15:00:25;28.77;56.94
82506;SHT30;72144;51.444;10.560;2023-08-12T15:02:50;28.72;56.38
82506;SHT30;72144;51.444;10.560;2023-08-12T15:05:16;28.74;55.92
82506;SHT30;72144;51.444;10.560;2023-08-12T15:07:42;28.70;55.49
82506;SHT30;72144;51.444;10.560;2023-08-12T15:10:07;28.68;55.41
82506;SHT30;72144;51.444;10.560;2023-08-12T15:12:34;28.63;55.33